sensor_id;sensor_type;location;lat;lon;timestamp;temperature;humidity
3308;DHT22;1666;48.898;9.182;2022-08-18T00:01:48;20.80;1.00
3308;DHT22;1666;48.898;9.182;2022-08-18T00:04:21;20.60;1.00
3308;DHT22;1666;48.898;9.182;2022-08-18T00:07:02;20.50;1.00
3308;DHT22;1666;48.898;9.182;2022-08-18T00:09:34;20.50;2.50
3308;DHT22;1666;48.898;9.182;2022-08-18T00:12:07;20.40;6.10
3308;DHT22;1666;48.898;9.182;2022-08-18T00:14:37;20.30;9.00
3308;DHT22;1666;48.898;9.182;2022-08-18T00:17:08;20.20;10.10
3308;DHT22;1666;48.898;9.182;2022-08-18T00:19:40;20.10;11.40
3308;DHT22;1666;48.898;9.182;2022-08-18T00:22:16;20.10;12.70
3308;DHT22;1666;48.898;9.182;2022-08-18T00:24:48;20.00;13.30
3308;DHT22;1666;48.898;9.182;2022-08-18T00:27:21;20.00;14.60
3308;DHT22;1666;48.898;9.182;2022-08-18T00:29:56;19.90;13.90
3308;DHT22;1666;48.898;9.182;2022-08-18T00:32:31;19.90;14.60
3308;DHT22;1666;48.898;9.182;2022-08-18T00:35:11;19.80;16.50
3308;DHT22;1666;48.898;9.182;2022-08-18T00:37:42;19.80;17.30
3308;DHT22;1666;48.898;9.182;2022-08-18T00:40:15;19.70;17.10
3308;DHT22;1666;48.898;9.182;2022-08-18T00:42:48;19.70;17.10
3308;DHT22;1666;48.898;9.182;2022-08-18T00:45:21;19.70;18.10
3308;DHT22;1666;48.898;9.182;2022-08-18T00:47:54;19.70;18.10
3308;DHT22;1666;48.898;9.182;2022-08-18T00:50:31;19.70;18.80
3308;DHT22;1666;48.898;9.182;2022-08-18T00:53:07;19.70;19.60
3308;DHT22;1666;48.898;9.182;2022-08-18T00:55:38;19.60;20.60
3308;DHT22;1666;48.898;9.182;2022-08-18T00:58:23;19.60;19.60
3308;DHT22;1666;48.898;9.182;2022-08-18T01:00:55;19.60;20.70
3308;DHT22;1666;48.898;9.182;2022-08-18T01:03:26;19.60;21.60
3308;DHT22;1666;48.898;9.182;2022-08-18T01:06:02;19.60;21.40
3308;DHT22;1666;48.898;9.182;2022-08-18T01:08:33;19.60;22.40
3308;DHT22;1666;48.898;9.182;2022-08-18T01:11:06;19.50;22.60
3308;DHT22;1666;48.898;9.182;2022-08-18T01:13:39;19.50;23.30
3308;DHT22;1666;48.898;9.182;2022-08-18T01:16:10;19.40;21.60
3308;DHT22;1666;48.898;9.182;2022-08-18T01:18:53;19.40;21.30
3308;DHT22;1666;48.898;9.182;2022-08-18T01:21:41;19.40;21.50
3308;DHT22;1666;48.898;9.182;2022-08-18T01:24:26;19.30;20.00
3308;DHT22;1666;48.898;9.182;2022-08-18T01:27:10;19.30;19.80
3308;DHT22;1666;48.898;9.182;2022-08-18T01:29:43;19.30;19.60
3308;DHT22;1666;48.898;9.182;2022-08-18T01:32:15;19.30;21.30
3308;DHT22;1666;48.898;9.182;2022-08-18T01:34:47;19.50;21.50
3308;DHT22;1666;48.898;9.182;2022-08-18T01:37:21;19.50;17.30
3308;DHT22;1666;48.898;9.182;2022-08-18T01:39:54;19.50;17.40
3308;DHT22;1666;48.898;9.182;2022-08-18T01:42:44;19.50;18.50
3308;DHT22;1666;48.898;9.182;2022-08-18T01:45:16;19.40;18.40
3308;DHT22;1666;48.898;9.182;2022-08-18T01:47:46;19.30;21.50
3308;DHT22;1666;48.898;9.182;2022-08-18T01:50:16;19.20;23.30
3308;DHT22;1666;48.898;9.182;2022-08-18T01:52:47;19.20;24.10
3308;DHT22;1666;48.898;9.182;2022-08-18T01:55:21;19.30;24.90
3308;DHT22;1666;48.898;9.182;2022-08-18T01:57:54;19.20;25.60
3308;DHT22;1666;48.898;9.182;2022-08-18T02:00:24;19.20;26.10
3308;DHT22;1666;48.898;9.182;2022-08-18T02:02:54;19.10;27.50
3308;DHT22;1666;48.898;9.182;2022-08-18T02:05:33;19.00;28.10
3308;DHT22;1666;48.898;9.182;2022-08-18T02:08:04;19.00;28.60
3308;DHT22;1666;48.898;9.182;2022-08-18T02:10:37;19.10;29.80
3308;DHT22;1666;48.898;9.182;2022-08-18T02:13:08;19.10;30.80
3308;DHT22;1666;48.898;9.182;2022-08-18T02:15:39;19.10;30.20
3308;DHT22;1666;48.898;9.182;2022-08-18T02:18:13;19.10;30.40
3308;DHT22;1666;48.898;9.182;2022-08-18T02:21:07;18.90;32.00
3308;DHT22;1666;48.898;9.182;2022-08-18T02:23:39;18.90;33.80
3308;DHT22;1666;48.898;9.182;2022-08-18T02:26:22;19.00;34.90
3308;DHT22;1666;48.898;9.182;2022-08-18T02:28:53;19.00;32.50
3308;DHT22;1666;48.898;9.182;2022-08-18T02:31:24;19.00;33.10
3308;DHT22;1666;48.898;9.182;2022-08-18T02:33:54;19.00;33.30
3308;DHT22;1666;48.898;9.182;2022-08-18T02:36:25;19.00;32.00
3308;DHT22;1666;48.898;9.182;2022-08-18T02:38:55;19.00;30.80
3308;DHT22;1666;48.898;9.182;2022-08-18T02:41:28;18.90;30.90
3308;DHT22;1666;48.898;9.182;2022-08-18T02:43:59;18.90;31.90
3308;DHT22;1666;48.898;9.182;2022-08-18T02:46:29;18.90;31.90
3308;DHT22;1666;48.898;9.182;2022-08-18T02:48:59;19.00;32.00
3308;DHT22;1666;48.898;9.182;2022-08-18T02:51:29;19.00;30.90
3308;DHT22;1666;48.898;9.182;2022-08-18T02:53:59;19.00;28.80
3308;DHT22;1666;48.898;9.182;2022-08-18T02:56:32;19.00;27.50
3308;DHT22;1666;48.898;9.182;2022-08-18T02:59:10;19.00;26.60
3308;DHT22;1666;48.898;9.182;2022-08-18T03:01:43;19.00;27.50
3308;DHT22;1666;48.898;9.182;2022-08-18T03:04:19;19.10;26.90
3308;DHT22;1666;48.898;9.182;2022-08-18T03:06:56;19.20;27.10
3308;DHT22;1666;48.898;9.182;2022-08-18T03:09:27;19.20;24.90
3308;DHT22;1666;48.898;9.182;2022-08-18T03:12:01;19.20;24.80
3308;DHT22;1666;48.898;9.182;2022-08-18T03:14:32;19.20;24.00
3308;DHT22;1666;48.898;9.182;2022-08-18T03:17:03;19.20;23.70
3308;DHT22;1666;48.898;9.182;2022-08-18T03:19:34;19.20;23.60
3308;DHT22;1666;48.898;9.182;2022-08-18T03:22:07;19.20;22.90
3308;DHT22;1666;48.898;9.182;2022-08-18T03:24:56;19.10;21.80
3308;DHT22;1666;48.898;9.182;2022-08-18T03:27:28;19.00;23.50
3308;DHT22;1666;48.898;9.182;2022-08-18T03:29:58;19.10;23.10
3308;DHT22;1666;48.898;9.182;2022-08-18T03:32:28;19.10;22.40
3308;DHT22;1666;48.898;9.182;2022-08-18T03:34:58;19.10;22.20
3308;DHT22;1666;48.898;9.182;2022-08-18T03:37:28;19.00;21.60
3308;DHT22;1666;48.898;9.182;2022-08-18T03:39:59;19.00;23.20
3308;DHT22;1666;48.898;9.182;2022-08-18T03:42:32;19.00;22.80
3308;DHT22;1666;48.898;9.182;2022-08-18T03:45:02;19.10;23.60
3308;DHT22;1666;48.898;9.182;2022-08-18T03:47:43;19.10;22.20
3308;DHT22;1666;48.898;9.182;2022-08-18T03:50:14;19.10;22.20
3308;DHT22;1666;48.898;9.182;2022-08-18T03:52:45;19.00;22.40
3308;DHT22;1666;48.898;9.182;2022-08-18T03:55:15;19.00;22.40
3308;DHT22;1666;48.898;9.182;2022-08-18T03:57:48;18.90;22.50
3308;DHT22;1666;48.898;9.182;2022-08-18T04:00:19;19.00;23.60
3308;DHT22;1666;48.898;9.182;2022-08-18T04:02:49;18.90;22.90
3308;DHT22;1666;48.898;9.182;2022-08-18T04:05:19;19.00;23.20
3308;DHT22;1666;48.898;9.182;2022-08-18T04:07:49;19.00;22.60
3308;DHT22;1666;48.898;9.182;2022-08-18T04:10:19;19.00;22.90
3308;DHT22;1666;48.898;9.182;2022-08-18T04:12:52;19.00;22.50
3308;DHT22;1666;48.898;9.182;2022-08-18T04:15:22;18.90;21.90
3308;DHT22;1666;48.898;9.182;2022-08-18T04:17:52;18.90;23.60
3308;DHT22;1666;48.898;9.182;2022-08-18T04:20:30;19.00;23.40
3308;DHT22;1666;48.898;9.182;2022-08-18T04:23:01;18.90;22.90
3308;DHT22;1666;48.898;9.182;2022-08-18T04:25:31;18.90;23.40
3308;DHT22;1666;48.898;9.182;2022-08-18T04:28:04;18.90;23.40
3308;DHT22;1666;48.898;9.182;2022-08-18T04:30:35;18.90;24.00
3308;DHT22;1666;48.898;9.182;2022-08-18T04:33:05;18.90;23.20
3308;DHT22;1666;48.898;9.182;2022-08-18T04:35:35;19.00;24.10
3308;DHT22;1666;48.898;9.182;2022-08-18T04:38:05;19.00;24.50
3308;DHT22;1666;48.898;9.182;2022-08-18T04:40:36;19.00;23.00
3308;DHT22;1666;48.898;9.182;2022-08-18T04:43:10;19.00;21.20
3308;DHT22;1666;48.898;9.182;2022-08-18T04:45:41;19.20;21.20
3308;DHT22;1666;48.898;9.182;2022-08-18T04:48:12;19.00;21.20
3308;DHT22;1666;48.898;9.182;2022-08-18T04:50:42;19.10;21.30
3308;DHT22;1666;48.898;9.182;2022-08-18T04:53:12;19.10;22.10
3308;DHT22;1666;48.898;9.182;2022-08-18T04:55:55;19.20;21.90
3308;DHT22;1666;48.898;9.182;2022-08-18T04:58:28;19.30;21.40
3308;DHT22;1666;48.898;9.182;2022-08-18T05:00:59;19.30;21.90
3308;DHT22;1666;48.898;9.182;2022-08-18T05:03:29;19.30;21.40
3308;DHT22;1666;48.898;9.182;2022-08-18T05:06:03;19.20;21.30
3308;DHT22;1666;48.898;9.182;2022-08-18T05:08:33;19.20;21.40
3308;DHT22;1666;48.898;9.182;2022-08-18T05:11:07;19.40;21.40
3308;DHT22;1666;48.898;9.182;2022-08-18T05:13:40;19.50;19.40
3308;DHT22;1666;48.898;9.182;2022-08-18T05:16:10;20.00;16.60
3308;DHT22;1666;48.898;9.182;2022-08-18T05:18:53;19.90;16.30
3308;DHT22;1666;48.898;9.182;2022-08-18T05:21:23;19.50;16.90
3308;DHT22;1666;48.898;9.182;2022-08-18T05:23:53;19.60;18.10
3308;DHT22;1666;48.898;9.182;2022-08-18T05:26:23;19.60;18.10
3308;DHT22;1666;48.898;9.182;2022-08-18T05:28:56;19.80;15.90
3308;DHT22;1666;48.898;9.182;2022-08-18T05:31:45;20.20;14.70
3308;DHT22;1666;48.898;9.182;2022-08-18T05:34:16;20.30;11.70
3308;DHT22;1666;48.898;9.182;2022-08-18T05:37:00;20.90;8.60
3308;DHT22;1666;48.898;9.182;2022-08-18T05:39:38;20.90;6.80
3308;DHT22;1666;48.898;9.182;2022-08-18T05:42:12;21.30;3.30
3308;DHT22;1666;48.898;9.182;2022-08-18T05:44:46;21.80;1.00
3308;DHT22;1666;48.898;9.182;2022-08-18T05:47:21;22.00;1.00
3308;DHT22;1666;48.898;9.182;2022-08-18T05:49:54;21.30;1.00
3308;DHT22;1666;48.898;9.182;2022-08-18T05:52:32;21.20;3.10
3308;DHT22;1666;48.898;9.182;2022-08-18T05:55:08;21.40;2.20
3308;DHT22;1666;48.898;9.182;2022-08-18T05:57:57;21.80;1.00
3308;DHT22;1666;48.898;9.182;2022-08-18T06:00:31;21.50;1.00
3308;DHT22;1666;48.898;9.182;2022-08-18T06:03:05;21.70;1.00
3308;DHT22;1666;48.898;9.182;2022-08-18T06:05:43;21.50;1.00
3308;DHT22;1666;48.898;9.182;2022-08-18T06:08:16;21.40;1.00
3308;DHT22;1666;48.898;9.182;2022-08-18T06:10:49;21.20;1.00
3308;DHT22;1666;48.898;9.182;2022-08-18T06:13:20;21.00;1.00
3308;DHT22;1666;48.898;9.182;2022-08-18T06:16:00;21.10;1.60
3308;DHT22;1666;48.898;9.182;2022-08-18T06:18:42;21.20;1.00
3308;DHT22;1666;48.898;9.182;2022-08-18T06:21:33;21.20;1.00
3308;DHT22;1666;48.898;9.182;2022-08-18T06:24:15;21.20;1.20
3308;DHT22;1666;48.898;9.182;2022-08-18T06:26:53;21.10;1.00
3308;DHT22;1666;48.898;9.182;2022-08-18T06:29:36;21.00;1.00
3308;DHT22;1666;48.898;9.182;2022-08-18T06:32:23;21.00;3.30
3308;DHT22;1666;48.898;9.182;2022-08-18T06:35:06;21.00;1.80
3308;DHT22;1666;48.898;9.182;2022-08-18T06:37:44;20.90;1.00
3308;DHT22;1666;48.898;9.182;2022-08-18T06:40:29;20.70;1.00
3308;DHT22;1666;48.898;9.182;2022-08-18T06:42:58;21.00;1.90
3308;DHT22;1666;48.898;9.182;2022-08-18T06:45:34;21.20;1.30
3308;DHT22;1666;48.898;9.182;2022-08-18T06:48:13;21.40;1.00
3308;DHT22;1666;48.898;9.182;2022-08-18T06:50:52;21.40;1.00
3308;DHT22;1666;48.898;9.182;2022-08-18T06:53:22;21.50;1.00
3308;DHT22;1666;48.898;9.182;2022-08-18T06:56:20;21.50;1.00
3308;DHT22;1666;48.898;9.182;2022-08-18T06:58:52;21.50;1.00
3308;DHT22;1666;48.898;9.182;2022-08-18T07:01:24;21.50;1.00
3308;DHT22;1666;48.898;9.182;2022-08-18T07:03:58;21.80;1.00
3308;DHT22;1666;48.898;9.182;2022-08-18T07:06:30;21.90;1.00
3308;DHT22;1666;48.898;9.182;2022-08-18T07:09:19;21.80;1.00
3308;DHT22;1666;48.898;9.182;2022-08-18T07:12:06;21.60;1.00
3308;DHT22;1666;48.898;9.182;2022-08-18T07:14:45;21.40;1.00
3308;DHT22;1666;48.898;9.182;2022-08-18T07:17:21;21.50;1.00
3308;DHT22;1666;48.898;9.182;2022-08-18T07:20:21;21.50;1.00
3308;DHT22;1666;48.898;9.182;2022-08-18T07:22:55;21.80;1.00
3308;DHT22;1666;48.898;9.182;2022-08-18T07:25:29;21.90;1.00
3308;DHT22;1666;48.898;9.182;2022-08-18T07:27:59;22.00;1.00
3308;DHT22;1666;48.898;9.182;2022-08-18T07:30:35;21.90;1.00
3308;DHT22;1666;48.898;9.182;2022-08-18T07:33:23;21.60;1.00
3308;DHT22;1666;48.898;9.182;2022-08-18T07:36:00;21.90;1.00
3308;DHT22;1666;48.898;9.182;2022-08-18T07:38:35;21.90;1.00
3308;DHT22;1666;48.898;9.182;2022-08-18T07:41:13;21.40;1.00
3308;DHT22;1666;48.898;9.182;2022-08-18T07:43:56;20.80;1.00
3308;DHT22;1666;48.898;9.182;2022-08-18T07:46:34;21.10;1.00
3308;DHT22;1666;48.898;9.182;2022-08-18T07:49:06;21.00;1.00
3308;DHT22;1666;48.898;9.182;2022-08-18T07:51:44;21.00;1.00
3308;DHT22;1666;48.898;9.182;2022-08-18T07:54:28;21.20;1.00
3308;DHT22;1666;48.898;9.182;2022-08-18T07:57:24;20.90;1.00
3308;DHT22;1666;48.898;9.182;2022-08-18T08:00:06;20.70;1.00
3308;DHT22;1666;48.898;9.182;2022-08-18T08:02:59;20.80;1.60
3308;DHT22;1666;48.898;9.182;2022-08-18T08:05:40;21.10;1.70
3308;DHT22;1666;48.898;9.182;2022-08-18T08:08:19;20.80;1.50
3308;DHT22;1666;48.898;9.182;2022-08-18T08:11:03;20.50;3.10
3308;DHT22;1666;48.898;9.182;2022-08-18T08:13:45;20.80;3.30
3308;DHT22;1666;48.898;9.182;2022-08-18T08:16:27;20.80;2.10
3308;DHT22;1666;48.898;9.182;2022-08-18T08:19:16;20.90;3.60
3308;DHT22;1666;48.898;9.182;2022-08-18T08:22:15;20.80;3.70
3308;DHT22;1666;48.898;9.182;2022-08-18T08:24:59;20.70;4.40
3308;DHT22;1666;48.898;9.182;2022-08-18T08:27:40;20.90;4.90
3308;DHT22;1666;48.898;9.182;2022-08-18T08:30:17;21.00;3.50
3308;DHT22;1666;48.898;9.182;2022-08-18T08:33:02;21.10;3.50
3308;DHT22;1666;48.898;9.182;2022-08-18T08:35:39;21.10;3.30
3308;DHT22;1666;48.898;9.182;2022-08-18T08:38:29;21.00;4.50
3308;DHT22;1666;48.898;9.182;2022-08-18T08:41:31;20.90;4.10
3308;DHT22;1666;48.898;9.182;2022-08-18T08:44:08;20.80;4.80
3308;DHT22;1666;48.898;9.182;2022-08-18T08:46:45;21.00;4.20
3308;DHT22;1666;48.898;9.182;2022-08-18T08:49:30;21.10;3.10
3308;DHT22;1666;48.898;9.182;2022-08-18T08:52:29;21.10;4.40
3308;DHT22;1666;48.898;9.182;2022-08-18T08:55:05;21.10;2.80
3308;DHT22;1666;48.898;9.182;2022-08-18T08:57:46;21.30;2.70
3308;DHT22;1666;48.898;9.182;2022-08-18T09:00:18;21.30;3.00
3308;DHT22;1666;48.898;9.182;2022-08-18T09:02:57;21.70;1.00
3308;DHT22;1666;48.898;9.182;2022-08-18T09:05:29;21.90;1.00
3308;DHT22;1666;48.898;9.182;2022-08-18T09:08:25;21.60;1.00
3308;DHT22;1666;48.898;9.182;2022-08-18T09:11:19;21.80;1.00
3308;DHT22;1666;48.898;9.182;2022-08-18T09:14:14;22.10;1.00
3308;DHT22;1666;48.898;9.182;2022-08-18T09:16:58;21.70;1.00
3308;DHT22;1666;48.898;9.182;2022-08-18T09:19:47;22.30;1.00
3308;DHT22;1666;48.898;9.182;2022-08-18T09:22:31;22.20;1.00
3308;DHT22;1666;48.898;9.182;2022-08-18T09:25:08;22.40;1.00
3308;DHT22;1666;48.898;9.182;2022-08-18T09:27:41;22.00;1.00
3308;DHT22;1666;48.898;9.182;2022-08-18T09:30:43;22.10;1.00
3308;DHT22;1666;48.898;9.182;2022-08-18T09:33:32;22.50;1.00
3308;DHT22;1666;48.898;9.182;2022-08-18T09:36:26;22.50;1.00
3308;DHT22;1666;48.898;9.182;2022-08-18T09:39:11;22.60;1.00
3308;DHT22;1666;48.898;9.182;2022-08-18T09:42:02;22.60;1.00
3308;DHT22;1666;48.898;9.182;2022-08-18T09:44:58;22.80;1.00
3308;DHT22;1666;48.898;9.182;2022-08-18T09:48:20;22.90;1.00
3308;DHT22;1666;48.898;9.182;2022-08-18T09:54:17;23.20;1.00
3308;DHT22;1666;48.898;9.182;2022-08-18T09:59:56;24.10;1.00
3308;DHT22;1666;48.898;9.182;2022-08-18T10:05:56;23.70;1.00
3308;DHT22;1666;48.898;9.182;2022-08-18T10:08:39;24.00;1.00
3308;DHT22;1666;48.898;9.182;2022-08-18T10:11:24;24.00;1.00
3308;DHT22;1666;48.898;9.182;2022-08-18T10:17:05;23.60;1.00
3308;DHT22;1666;48.898;9.182;2022-08-18T10:19:55;23.50;1.00
3308;DHT22;1666;48.898;9.182;2022-08-18T10:22:39;23.80;1.00
3308;DHT22;1666;48.898;9.182;2022-08-18T10:25:14;23.60;1.00
3308;DHT22;1666;48.898;9.182;2022-08-18T10:27:59;23.80;1.00
3308;DHT22;1666;48.898;9.182;2022-08-18T10:30:46;23.90;1.00
3308;DHT22;1666;48.898;9.182;2022-08-18T10:33:55;23.80;1.00
3308;DHT22;1666;48.898;9.182;2022-08-18T10:36:38;24.20;1.00
3308;DHT22;1666;48.898;9.182;2022-08-18T10:39:13;24.20;1.00
3308;DHT22;1666;48.898;9.182;2022-08-18T10:41:56;24.40;1.00
3308;DHT22;1666;48.898;9.182;2022-08-18T10:44:29;24.60;1.00
3308;DHT22;1666;48.898;9.182;2022-08-18T10:47:01;24.60;1.00
3308;DHT22;1666;48.898;9.182;2022-08-18T10:49:38;25.10;1.00
3308;DHT22;1666;48.898;9.182;2022-08-18T10:52:34;24.80;1.00
3308;DHT22;1666;48.898;9.182;2022-08-18T10:55:31;24.70;1.00
3308;DHT22;1666;48.898;9.182;2022-08-18T11:01:33;24.20;1.00
3308;DHT22;1666;48.898;9.182;2022-08-18T11:04:08;24.40;1.00
3308;DHT22;1666;48.898;9.182;2022-08-18T11:07:09;24.70;1.00
3308;DHT22;1666;48.898;9.182;2022-08-18T11:09:45;24.50;1.00
3308;DHT22;1666;48.898;9.182;2022-08-18T11:12:53;24.40;1.00
3308;DHT22;1666;48.898;9.182;2022-08-18T11:15:53;25.00;1.00
3308;DHT22;1666;48.898;9.182;2022-08-18T11:18:31;25.10;1.00
3308;DHT22;1666;48.898;9.182;2022-08-18T11:21:31;24.70;1.00
3308;DHT22;1666;48.898;9.182;2022-08-18T11:24:14;24.90;1.00
3308;DHT22;1666;48.898;9.182;2022-08-18T11:26:49;24.70;1.00
3308;DHT22;1666;48.898;9.182;2022-08-18T11:29:26;24.80;1.00
3308;DHT22;1666;48.898;9.182;2022-08-18T11:32:03;24.90;1.00
3308;DHT22;1666;48.898;9.182;2022-08-18T11:35:01;24.70;1.00
3308;DHT22;1666;48.898;9.182;2022-08-18T11:37:36;25.00;1.00
3308;DHT22;1666;48.898;9.182;2022-08-18T11:40:28;24.80;1.00
3308;DHT22;1666;48.898;9.182;2022-08-18T11:43:24;24.80;1.00
3308;DHT22;1666;48.898;9.182;2022-08-18T11:46:13;24.90;1.00
3308;DHT22;1666;48.898;9.182;2022-08-18T11:48:50;25.60;1.00
3308;DHT22;1666;48.898;9.182;2022-08-18T11:51:24;25.30;1.00
3308;DHT22;1666;48.898;9.182;2022-08-18T11:53:57;25.40;1.00
3308;DHT22;1666;48.898;9.182;2022-08-18T11:56:29;25.30;1.00
3308;DHT22;1666;48.898;9.182;2022-08-18T11:59:06;25.60;1.00
3308;DHT22;1666;48.898;9.182;2022-08-18T12:01:47;25.60;1.00
3308;DHT22;1666;48.898;9.182;2022-08-18T12:04:24;25.40;1.00
3308;DHT22;1666;48.898;9.182;2022-08-18T12:07:01;24.90;1.00
3308;DHT22;1666;48.898;9.182;2022-08-18T12:09:35;25.10;1.00
3308;DHT22;1666;48.898;9.182;2022-08-18T12:12:27;25.60;1.00
3308;DHT22;1666;48.898;9.182;2022-08-18T12:15:00;25.30;1.00
3308;DHT22;1666;48.898;9.182;2022-08-18T12:17:53;25.20;1.00
3308;DHT22;1666;48.898;9.182;2022-08-18T12:20:23;25.50;1.00
3308;DHT22;1666;48.898;9.182;2022-08-18T12:22:55;25.80;1.00
3308;DHT22;1666;48.898;9.182;2022-08-18T12:25:25;25.60;1.00
3308;DHT22;1666;48.898;9.182;2022-08-18T12:27:56;25.80;1.00
3308;DHT22;1666;48.898;9.182;2022-08-18T12:30:26;26.00;1.00
3308;DHT22;1666;48.898;9.182;2022-08-18T12:33:00;26.00;1.00
3308;DHT22;1666;48.898;9.182;2022-08-18T12:35:38;26.20;1.00
3308;DHT22;1666;48.898;9.182;2022-08-18T12:38:08;25.80;1.00
3308;DHT22;1666;48.898;9.182;2022-08-18T12:40:41;25.50;1.00
3308;DHT22;1666;48.898;9.182;2022-08-18T12:43:11;25.90;1.00
3308;DHT22;1666;48.898;9.182;2022-08-18T12:45:42;26.20;1.00
3308;DHT22;1666;48.898;9.182;2022-08-18T12:48:15;26.10;1.00
3308;DHT22;1666;48.898;9.182;2022-08-18T12:50:48;25.90;1.00
3308;DHT22;1666;48.898;9.182;2022-08-18T12:53:38;26.00;1.00
3308;DHT22;1666;48.898;9.182;2022-08-18T12:56:28;26.20;1.00
3308;DHT22;1666;48.898;9.182;2022-08-18T12:59:00;26.10;1.00
3308;DHT22;1666;48.898;9.182;2022-08-18T13:01:31;26.10;1.00
3308;DHT22;1666;48.898;9.182;2022-08-18T13:04:04;26.10;1.00
3308;DHT22;1666;48.898;9.182;2022-08-18T13:06:44;26.20;1.00
3308;DHT22;1666;48.898;9.182;2022-08-18T13:09:28;26.30;1.00
3308;DHT22;1666;48.898;9.182;2022-08-18T13:12:15;26.30;1.00
3308;DHT22;1666;48.898;9.182;2022-08-18T13:14:46;26.40;1.00
3308;DHT22;1666;48.898;9.182;2022-08-18T13:17:17;26.50;1.00
3308;DHT22;1666;48.898;9.182;2022-08-18T13:20:05;26.40;1.00
3308;DHT22;1666;48.898;9.182;2022-08-18T13:22:39;26.50;1.00
3308;DHT22;1666;48.898;9.182;2022-08-18T13:25:11;26.60;1.00
3308;DHT22;1666;48.898;9.182;2022-08-18T13:28:02;26.30;1.00
3308;DHT22;1666;48.898;9.182;2022-08-18T13:30:32;26.20;1.00
3308;DHT22;1666;48.898;9.182;2022-08-18T13:33:04;26.50;1.00
3308;DHT22;1666;48.898;9.182;2022-08-18T13:35:56;26.70;1.00
3308;DHT22;1666;48.898;9.182;2022-08-18T13:38:27;26.60;1.00
3308;DHT22;1666;48.898;9.182;2022-08-18T13:40:58;26.60;1.00
3308;DHT22;1666;48.898;9.182;2022-08-18T13:43:34;26.50;1.00
3308;DHT22;1666;48.898;9.182;2022-08-18T13:46:06;26.80;1.00
3308;DHT22;1666;48.898;9.182;2022-08-18T13:48:37;27.10;1.00
3308;DHT22;1666;48.898;9.182;2022-08-18T13:51:22;27.00;1.00
3308;DHT22;1666;48.898;9.182;2022-08-18T13:53:52;27.40;1.00
3308;DHT22;1666;48.898;9.182;2022-08-18T13:56:44;27.40;1.00
3308;DHT22;1666;48.898;9.182;2022-08-18T13:59:18;26.90;1.00
3308;DHT22;1666;48.898;9.182;2022-08-18T14:01:50;27.50;1.00
3308;DHT22;1666;48.898;9.182;2022-08-18T14:04:20;27.50;1.00
3308;DHT22;1666;48.898;9.182;2022-08-18T14:06:56;27.20;1.00
3308;DHT22;1666;48.898;9.182;2022-08-18T14:09:30;27.00;1.00
3308;DHT22;1666;48.898;9.182;2022-08-18T14:12:05;27.00;1.00
3308;DHT22;1666;48.898;9.182;2022-08-18T14:14:48;27.10;1.00
3308;DHT22;1666;48.898;9.182;2022-08-18T14:17:18;27.30;1.00
3308;DHT22;1666;48.898;9.182;2022-08-18T14:19:49;27.20;1.00
3308;DHT22;1666;48.898;9.182;2022-08-18T14:22:39;27.20;1.00
3308;DHT22;1666;48.898;9.182;2022-08-18T14:25:21;27.50;1.00
3308;DHT22;1666;48.898;9.182;2022-08-18T14:28:05;27.60;1.00
3308;DHT22;1666;48.898;9.182;2022-08-18T14:30:38;27.50;1.00
3308;DHT22;1666;48.898;9.182;2022-08-18T14:33:22;27.40;1.00
3308;DHT22;1666;48.898;9.182;2022-08-18T14:36:14;27.30;1.00
3308;DHT22;1666;48.898;9.182;2022-08-18T14:38:46;27.00;1.00
3308;DHT22;1666;48.898;9.182;2022-08-18T14:41:18;26.90;1.00
3308;DHT22;1666;48.898;9.182;2022-08-18T14:43:53;27.10;1.00
3308;DHT22;1666;48.898;9.182;2022-08-18T14:46:40;27.00;1.00
3308;DHT22;1666;48.898;9.182;2022-08-18T14:49:20;26.70;1.00
3308;DHT22;1666;48.898;9.182;2022-08-18T14:51:56;26.80;1.00
3308;DHT22;1666;48.898;9.182;2022-08-18T14:54:29;26.90;1.00
3308;DHT22;1666;48.898;9.182;2022-08-18T14:57:00;27.10;1.00
3308;DHT22;1666;48.898;9.182;2022-08-18T14:59:31;27.30;1.00
3308;DHT22;1666;48.898;9.182;2022-08-18T15:02:04;27.50;1.00
3308;DHT22;1666;48.898;9.182;2022-08-18T15:04:39;27.50;1.00
3308;DHT22;1666;48.898;9.182;2022-08-18T15:07:22;27.60;1.00
3308;DHT22;1666;48.898;9.182;2022-08-18T15:09:54;27.30;1.00
3308;DHT22;1666;48.898;9.182;2022-08-18T15:12:42;27.10;1.00
3308;DHT22;1666;48.898;9.182;2022-08-18T15:15:13;27.30;1.00
3308;DHT22;1666;48.898;9.182;2022-08-18T15:17:44;27.40;1.00
3308;DHT22;1666;48.898;9.182;2022-08-18T15:20:20;27.70;1.00
3308;DHT22;1666;48.898;9.182;2022-08-18T15:22:58;27.70;1.00
3308;DHT22;1666;48.898;9.182;2022-08-18T15:25:46;27.30;1.00
3308;DHT22;1666;48.898;9.182;2022-08-18T15:28:18;27.50;1.00
3308;DHT22;1666;48.898;9.182;2022-08-18T15:30:53;27.40;1.00
3308;DHT22;1666;48.898;9.182;2022-08-18T15:33:43;27.30;1.00
3308;DHT22;1666;48.898;9.182;2022-08-18T15:36:17;27.20;1.00
3308;DHT22;1666;48.898;9.182;2022-08-18T15:38:55;27.50;1.00
3308;DHT22;1666;48.898;9.182;2022-08-18T15:41:33;27.40;1.00
3308;DHT22;1666;48.898;9.182;2022-08-18T15:44:10;27.40;1.00
3308;DHT22;1666;48.898;9.182;2022-08-18T15:46:40;27.20;1.00
3308;DHT22;1666;48.898;9.182;2022-08-18T15:49:19;27.20;1.00
3308;DHT22;1666;48.898;9.182;2022-08-18T15:51:50;27.00;1.00
3308;DHT22;1666;48.898;9.182;2022-08-18T15:54:20;27.30;1.00
3308;DHT22;1666;48.898;9.182;2022-08-18T15:56:53;27.20;1.00
3308;DHT22;1666;48.898;9.182;2022-08-18T15:59:25;27.20;1.00
3308;DHT22;1666;48.898;9.182;2022-08-18T16:02:06;26.90;1.00
3308;DHT22;1666;48.898;9.182;2022-08-18T16:04:38;27.30;1.00
3308;DHT22;1666;48.898;9.182;2022-08-18T16:07:11;27.00;1.00
3308;DHT22;1666;48.898;9.182;2022-08-18T16:09:50;27.10;1.00
3308;DHT22;1666;48.898;9.182;2022-08-18T16:12:23;27.00;1.00
3308;DHT22;1666;48.898;9.182;2022-08-18T16:14:53;26.90;1.00
3308;DHT22;1666;48.898;9.182;2022-08-18T16:17:23;27.00;1.00
3308;DHT22;1666;48.898;9.182;2022-08-18T16:19:57;27.00;1.00
3308;DHT22;1666;48.898;9.182;2022-08-18T16:22:27;27.00;1.00
3308;DHT22;1666;48.898;9.182;2022-08-18T16:24:58;27.00;1.00
3308;DHT22;1666;48.898;9.182;2022-08-18T16:27:30;26.70;1.00
3308;DHT22;1666;48.898;9.182;2022-08-18T16:30:02;26.60;1.00
3308;DHT22;1666;48.898;9.182;2022-08-18T16:32:32;26.60;1.00
3308;DHT22;1666;48.898;9.182;2022-08-18T16:35:03;26.70;1.00
3308;DHT22;1666;48.898;9.182;2022-08-18T16:37:33;26.50;1.00
3308;DHT22;1666;48.898;9.182;2022-08-18T16:40:04;26.70;1.00
3308;DHT22;1666;48.898;9.182;2022-08-18T16:42:37;26.60;1.00
3308;DHT22;1666;48.898;9.182;2022-08-18T16:45:07;26.50;1.00
3308;DHT22;1666;48.898;9.182;2022-08-18T16:47:39;26.20;1.00
3308;DHT22;1666;48.898;9.182;2022-08-18T16:50:12;26.30;1.00
3308;DHT22;1666;48.898;9.182;2022-08-18T16:52:42;26.40;1.00
3308;DHT22;1666;48.898;9.182;2022-08-18T16:55:12;26.10;1.00
3308;DHT22;1666;48.898;9.182;2022-08-18T16:57:45;25.80;1.00
3308;DHT22;1666;48.898;9.182;2022-08-18T17:00:29;25.90;1.00
3308;DHT22;1666;48.898;9.182;2022-08-18T17:03:20;25.80;1.00
3308;DHT22;1666;48.898;9.182;2022-08-18T17:06:05;25.80;1.00
3308;DHT22;1666;48.898;9.182;2022-08-18T17:08:37;25.60;1.00
3308;DHT22;1666;48.898;9.182;2022-08-18T17:11:10;25.50;1.00
3308;DHT22;1666;48.898;9.182;2022-08-18T17:13:43;25.50;1.00
3308;DHT22;1666;48.898;9.182;2022-08-18T17:16:14;25.40;1.00
3308;DHT22;1666;48.898;9.182;2022-08-18T17:18:45;25.40;1.00
3308;DHT22;1666;48.898;9.182;2022-08-18T17:21:17;25.30;1.00
3308;DHT22;1666;48.898;9.182;2022-08-18T17:23:48;25.30;1.00
3308;DHT22;1666;48.898;9.182;2022-08-18T17:26:27;25.10;1.00
3308;DHT22;1666;48.898;9.182;2022-08-18T17:29:06;25.10;1.00
3308;DHT22;1666;48.898;9.182;2022-08-18T17:31:41;24.90;1.00
3308;DHT22;1666;48.898;9.182;2022-08-18T17:34:13;24.80;1.00